Time;durP1;ratioP1;P1;durP2;ratioP2;P2;SDS_P1;SDS_P2;PMS_P1;PMS_P2;Temp;Humidity;BMP_temperature;BMP_pressure;BME280_temperature;BME280_humidity;BME280_pressure;Samples;Min_cycle;Max_cycle;Signal;HPM_P1;HPM_P2
2022/01/17 00:01:52;;;;;;;;;116.00;95.50;;;;;2.76;64.92;100159.50;5082840;28;11860;-77
2022/01/17 00:04:21;;;;;;;;;110.75;89.00;;;;;2.79;64.91;100169.06;5048576;28;1187534;-78
2022/01/17 00:06:50;;;;;;;;;109.50;89.50;;;;;2.68;65.56;100194.34;5088464;28;8975;-77
2022/01/17 00:09:22;;;;;;;;;112.25;97.00;;;;;2.57;66.36;100188.78;5047718;28;10771;-76
2022/01/17 00:11:51;;;;;;;;;118.50;105.25;;;;;2.26;67.55;100187.44;5087234;28;11611;-78
2022/01/17 00:14:23;;;;;;;;;114.50;96.25;;;;;1.80;69.61;100200.00;5070350;28;10964;-77
2022/01/17 00:17:05;;;;;;;;;114.00;98.75;;;;;1.07;72.60;100217.16;5077640;28;10967;-77
2022/01/17 00:19:41;;;;;;;;;116.25;100.00;;;;;0.70;74.98;100225.66;5071282;28;11172;-76
2022/01/17 00:22:10;;;;;;;;;118.75;106.00;;;;;0.81;75.01;100221.03;5085623;28;11247;-76
2022/01/17 00:24:41;;;;;;;;;123.75;109.00;;;;;1.13;73.58;100232.00;5020656;28;11154;-76
2022/01/17 00:27:10;;;;;;;;;122.25;103.75;;;;;1.36;72.44;100225.38;5049406;28;11427;-76
2022/01/17 00:29:38;;;;;;;;;118.50;107.50;;;;;1.47;71.92;100241.31;4984168;28;11193;-76
2022/01/17 00:32:08;;;;;;;;;118.25;106.50;;;;;1.49;71.88;100243.16;5033317;28;11513;-76
2022/01/17 00:34:36;;;;;;;;;127.00;111.25;;;;;1.54;71.87;100235.66;5049779;28;11527;-76
2022/01/17 00:37:05;;;;;;;;;121.50;108.50;;;;;1.44;71.53;100254.03;5042080;28;11542;-78
2022/01/17 00:39:34;;;;;;;;;127.50;113.50;;;;;1.08;73.77;100259.16;4998716;28;11587;-76
2022/01/17 00:42:04;;;;;;;;;120.25;105.00;;;;;1.37;72.70;100252.84;5043116;28;11577;-78
2022/01/17 00:44:33;;;;;;;;;132.75;111.75;;;;;1.56;71.85;100254.59;5027760;28;11542;-76
2022/01/17 00:47:02;;;;;;;;;111.25;94.25;;;;;1.67;70.67;100266.25;5032821;28;11611;-77
2022/01/17 00:49:31;;;;;;;;;116.75;100.25;;;;;1.73;70.22;100270.81;5065746;28;11460;-78
2022/01/17 00:51:59;;;;;;;;;123.00;111.75;;;;;1.85;69.63;100263.69;5049309;28;12333;-77
2022/01/17 00:54:31;;;;;;;;;123.25;106.75;;;;;1.95;69.28;100258.13;5049404;28;11437;-77
2022/01/17 00:57:00;;;;;;;;;126.50;116.50;;;;;2.05;68.69;100245.69;5049419;28;11521;-78
2022/01/17 00:59:30;;;;;;;;;128.00;114.25;;;;;2.13;68.56;100260.63;5049288;28;11524;-76
2022/01/17 01:01:59;;;;;;;;;130.50;115.50;;;;;2.02;68.33;100259.28;5000229;28;11519;-77
2022/01/17 01:04:28;;;;;;;;;116.00;98.00;;;;;2.13;67.97;100263.22;5039414;28;11488;-76
2022/01/17 01:06:56;;;;;;;;;136.25;121.75;;;;;2.17;67.96;100255.66;5049188;28;11506;-78
2022/01/17 01:09:29;;;;;;;;;143.00;127.75;;;;;2.23;67.82;100246.53;5032214;28;11516;-76
2022/01/17 01:11:57;;;;;;;;;143.75;127.25;;;;;2.29;67.10;100249.34;5065888;28;11597;-78
2022/01/17 01:14:26;;;;;;;;;138.00;115.75;;;;;2.34;67.28;100247.88;5048946;28;11478;-77
2022/01/17 01:16:57;;;;;;;;;135.75;127.25;;;;;2.41;66.81;100253.28;5045361;28;11531;-77
2022/01/17 01:19:28;;;;;;;;;142.50;123.00;;;;;2.41;66.72;100261.88;4980492;28;11508;-77
2022/01/17 01:30:19;;;;;;;;;143.50;125.00;;;;;2.53;66.16;100271.81;5045121;28;11801;-76
2022/01/17 01:32:53;;;;;;;;;133.50;116.25;;;;;2.54;66.38;100276.16;5045215;28;11510;-78
2022/01/17 01:35:24;;;;;;;;;135.50;118.25;;;;;2.54;66.56;100269.31;5036167;28;11515;-77
2022/01/17 01:37:53;;;;;;;;;128.75;116.50;;;;;2.53;66.14;100271.81;5031769;28;11588;-78
2022/01/17 01:40:22;;;;;;;;;110.00;94.75;;;;;2.53;66.33;100266.66;5064453;28;11574;-77
2022/01/17 01:42:53;;;;;;;;;138.25;118.75;;;;;2.48;66.35;100269.06;5031537;28;11591;-77
2022/01/17 01:45:22;;;;;;;;;130.25;118.00;;;;;2.48;66.25;100257.88;5008698;28;11625;-76
2022/01/17 01:47:52;;;;;;;;;142.00;126.50;;;;;2.44;66.78;100266.25;5024447;28;11514;-77
2022/01/17 01:50:22;;;;;;;;;135.50;118.25;;;;;2.42;66.52;100266.22;5048575;28;11499;-76
2022/01/17 01:52:51;;;;;;;;;116.25;97.75;;;;;2.39;66.48;100262.63;5031840;28;11507;-77
2022/01/17 01:55:22;;;;;;;;;122.75;111.50;;;;;2.28;66.71;100270.75;5031916;28;11575;-76
2022/01/17 01:57:51;;;;;;;;;146.00;118.75;;;;;2.23;67.04;100264.53;4992183;28;11640;-75
2022/01/17 02:00:20;;;;;;;;;128.00;112.25;;;;;2.32;66.54;100269.19;5024852;28;11637;-78
2022/01/17 02:02:49;;;;;;;;;122.25;107.50;;;;;2.13;67.40;100277.78;5024893;28;13110;-77
2022/01/17 02:05:19;;;;;;;;;121.00;113.00;;;;;2.16;67.36;100290.78;5024616;28;11686;-78
2022/01/17 02:07:48;;;;;;;;;108.50;82.25;;;;;1.62;69.57;100288.28;5008173;28;11513;-77
2022/01/17 02:10:17;;;;;;;;;110.25;94.00;;;;;1.79;69.27;100289.09;4968985;28;10997;-77
2022/01/17 02:12:46;;;;;;;;;112.25;95.00;;;;;1.90;68.74;100297.31;4953521;28;10973;-76
2022/01/17 02:15:16;;;;;;;;;114.75;101.25;;;;;1.79;69.46;100309.66;4937380;28;10961;-77
2022/01/17 02:17:54;;;;;;;;;110.00;92.00;;;;;1.87;69.07;100303.19;4982842;28;11258;-76
2022/01/17 02:20:28;;;;;;;;;112.75;92.25;;;;;1.95;68.79;100301.84;4977293;28;10898;-76
2022/01/17 02:22:57;;;;;;;;;107.50;86.50;;;;;1.88;69.28;100306.66;5005099;28;11480;-77
2022/01/17 02:25:26;;;;;;;;;112.50;93.50;;;;;1.73;69.48;100309.38;4988713;28;11043;-77
2022/01/17 02:27:54;;;;;;;;;114.25;97.25;;;;;1.85;69.20;100306.50;4973555;28;10791;-78
2022/01/17 02:30:25;;;;;;;;;119.50;102.50;;;;;1.92;68.66;100306.84;4953114;28;10794;-75
2022/01/17 02:32:54;;;;;;;;;110.25;93.75;;;;;1.84;69.39;100312.47;4968741;28;11790;-77
2022/01/17 02:35:25;;;;;;;;;117.00;101.75;;;;;1.90;68.83;100315.31;4985547;28;11037;-77
2022/01/17 02:37:55;;;;;;;;;117.50;97.00;;;;;1.84;69.11;100323.63;4989135;28;10984;-77
2022/01/17 02:40:24;;;;;;;;;113.00;94.25;;;;;1.93;69.04;100323.19;4991119;28;10649;-77
2022/01/17 02:43:01;;;;;;;;;118.75;101.25;;;;;2.00;68.44;100322.63;5031170;28;10970;-76
2022/01/17 02:45:33;;;;;;;;;120.75;98.50;;;;;2.04;68.58;100310.78;5031861;28;11034;-75
2022/01/17 02:48:03;;;;;;;;;119.50;100.25;;;;;2.06;68.44;100311.75;5048725;28;11287;-77
2022/01/17 02:50:34;;;;;;;;;112.25;88.00;;;;;2.09;68.08;100304.19;5031682;28;10844;-77
2022/01/17 02:53:05;;;;;;;;;117.25;104.25;;;;;1.99;68.23;100307.16;4999077;28;11335;-77
2022/01/17 02:55:34;;;;;;;;;115.25;99.50;;;;;2.00;68.13;100306.31;5031723;28;11047;-76
2022/01/17 02:58:02;;;;;;;;;105.50;81.50;;;;;2.00;68.07;100304.63;5031538;28;11085;-77
2022/01/17 03:00:31;;;;;;;;;122.00;104.25;;;;;1.95;68.44;100301.00;5033108;28;11257;-76
2022/01/17 03:03:00;;;;;;;;;118.25;98.50;;;;;1.97;68.17;100301.94;5071532;28;11116;-76
2022/01/17 03:05:28;;;;;;;;;114.00;96.50;;;;;1.91;68.07;100299.97;5088603;28;11046;-77
2022/01/17 03:07:58;;;;;;;;;117.75;94.75;;;;;1.98;68.39;100306.25;5069810;28;10841;-77
2022/01/17 03:10:37;;;;;;;;;113.75;96.00;;;;;2.00;68.43;100298.63;5090564;28;10719;-76
2022/01/17 03:13:09;;;;;;;;;111.75;91.50;;;;;1.95;68.39;100304.44;5071626;28;10753;-76
2022/01/17 03:15:38;;;;;;;;;112.25;94.25;;;;;1.96;68.54;100305.31;5066950;28;10876;-78
2022/01/17 03:18:08;;;;;;;;;113.75;90.25;;;;;1.98;68.82;100302.81;5033304;28;10726;-75
2022/01/17 03:20:37;;;;;;;;;106.50;81.25;;;;;1.91;68.95;100299.97;5049870;28;10590;-77
2022/01/17 03:23:08;;;;;;;;;108.75;88.00;;;;;1.99;68.52;100292.59;5067045;28;10693;-77
2022/01/17 03:25:37;;;;;;;;;105.75;83.00;;;;;2.03;68.43;100293.63;5033991;28;11317;-77
2022/01/17 03:28:06;;;;;;;;;109.25;84.50;;;;;2.08;68.94;100290.44;5049656;28;10389;-76
2022/01/17 03:30:35;;;;;;;;;109.75;92.25;;;;;2.08;68.37;100300.75;5050148;28;10263;-76
2022/01/17 03:33:06;;;;;;;;;110.00;85.00;;;;;2.15;68.56;100312.16;5049236;28;10439;-78
2022/01/17 03:35:36;;;;;;;;;110.50;90.75;;;;;2.19;68.42;100314.06;5066009;28;10430;-77
2022/01/17 03:38:07;;;;;;;;;110.50;87.00;;;;;2.24;68.37;100301.44;5050580;28;10289;-76
2022/01/17 03:40:41;;;;;;;;;113.75;98.25;;;;;2.30;67.96;100310.28;5065989;28;11176;-77
2022/01/17 03:43:10;;;;;;;;;113.50;97.50;;;;;2.29;67.81;100310.25;5050363;28;11065;-77
2022/01/17 03:45:38;;;;;;;;;112.00;91.25;;;;;2.31;68.13;100318.91;5017746;28;10443;-76
2022/01/17 03:48:07;;;;;;;;;113.50;94.75;;;;;2.33;68.13;100325.00;5054646;28;10574;-76
2022/01/17 03:50:37;;;;;;;;;102.00;78.75;;;;;2.33;67.85;100325.00;5088439;28;10789;-75
2022/01/17 03:53:07;;;;;;;;;113.00;95.75;;;;;2.40;67.86;100310.69;5088927;28;10413;-78
2022/01/17 03:55:36;;;;;;;;;82.50;57.25;;;;;2.45;68.11;100312.66;5060614;28;10545;-77
2022/01/17 03:58:07;;;;;;;;;107.75;89.75;;;;;2.54;67.78;100317.34;5004971;28;10598;-77
2022/01/17 04:00:39;;;;;;;;;113.25;90.25;;;;;2.48;67.86;100310.25;4990655;28;10648;-76
2022/01/17 04:03:09;;;;;;;;;103.00;83.00;;;;;2.54;67.72;100309.63;4987443;28;11530;-76
2022/01/17 04:05:38;;;;;;;;;107.25;87.50;;;;;2.55;67.36;100306.22;4922808;28;11309;-76
2022/01/17 04:08:09;;;;;;;;;115.00;99.25;;;;;2.58;67.54;100306.38;4987517;28;10453;-76
2022/01/17 04:10:38;;;;;;;;;109.00;89.25;;;;;2.61;66.99;100309.09;4971351;28;10782;-77
2022/01/17 04:13:08;;;;;;;;;111.50;90.25;;;;;2.59;67.35;100307.25;4987210;28;11396;-77
2022/01/17 04:15:38;;;;;;;;;114.75;91.50;;;;;2.61;67.59;100303.03;4975522;28;11294;-77
2022/01/17 04:18:10;;;;;;;;;110.00;90.50;;;;;2.64;67.21;100296.34;4993108;28;10578;-77
2022/01/17 04:20:40;;;;;;;;;106.25;83.50;;;;;2.63;67.00;100299.75;5026547;28;10232;-77
2022/01/17 04:23:13;;;;;;;;;106.75;87.25;;;;;2.65;67.16;100292.09;4971961;28;10807;-76
2022/01/17 04:25:44;;;;;;;;;112.75;91.25;;;;;2.69;67.26;100284.53;4971290;28;10449;-79
2022/01/17 04:28:14;;;;;;;;;110.75;93.50;;;;;2.66;66.74;100293.81;4954868;28;10446;-76
2022/01/17 04:30:44;;;;;;;;;106.00;85.00;;;;;2.67;67.06;100290.44;4969314;28;10780;-76
2022/01/17 04:33:13;;;;;;;;;116.00;96.50;;;;;2.67;66.58;100291.31;4968132;28;10320;-77
2022/01/17 04:35:43;;;;;;;;;109.50;92.75;;;;;2.67;66.98;100296.47;5027846;28;10558;-77
2022/01/17 04:38:17;;;;;;;;;114.50;99.00;;;;;2.64;66.94;100300.59;5033512;28;10517;-76
2022/01/17 04:40:47;;;;;;;;;111.00;94.75;;;;;2.62;66.91;100299.66;5049056;28;10595;-77
2022/01/17 04:43:20;;;;;;;;;109.50;86.50;;;;;2.61;67.35;100291.06;5063347;28;11427;-77
2022/01/17 04:45:51;;;;;;;;;114.25;94.50;;;;;2.62;67.04;100291.94;5065976;28;10892;-75
2022/01/17 04:48:20;;;;;;;;;114.25;95.50;;;;;2.57;67.10;100291.75;5045746;28;10578;-75
2022/01/17 04:50:49;;;;;;;;;114.00;90.25;;;;;2.58;67.25;100290.94;5056766;28;10554;-76
2022/01/17 04:53:21;;;;;;;;;107.50;83.00;;;;;2.59;67.10;100289.22;5008930;28;10665;-77
2022/01/17 04:55:50;;;;;;;;;109.25;89.75;;;;;2.57;66.82;100289.19;5013029;28;10469;-76
2022/01/17 04:58:20;;;;;;;;;110.25;96.75;;;;;2.57;67.31;100288.28;5045360;28;10578;-78
2022/01/17 05:00:49;;;;;;;;;105.75;85.00;;;;;2.60;66.67;100279.00;5028604;28;10446;-77
2022/01/17 05:03:19;;;;;;;;;112.75;93.25;;;;;2.62;66.95;100277.38;5028994;28;10739;-77
2022/01/17 05:05:54;;;;;;;;;110.75;91.25;;;;;2.59;66.85;100277.25;5045263;28;10450;-76
2022/01/17 05:08:24;;;;;;;;;115.50;91.25;;;;;2.58;67.13;100283.19;5028233;28;10684;-77
2022/01/17 05:10:54;;;;;;;;;113.25;94.75;;;;;2.52;67.33;100288.09;5012402;28;10211;-77
2022/01/17 05:13:31;;;;;;;;;111.50;90.25;;;;;2.54;67.66;100286.47;5028318;28;10380;-76
2022/01/17 05:16:08;;;;;;;;;109.50;87.25;;;;;2.51;68.03;100283.75;5028656;28;10410;-78
2022/01/17 05:21:23;;;;;;;;;117.75;96.00;;;;;2.40;68.29;100278.16;5044912;28;10706;-76
2022/01/17 05:23:53;;;;;;;;;112.00;87.25;;;;;2.39;68.35;100278.94;5055555;28;10795;-76
2022/01/17 05:26:22;;;;;;;;;112.00;98.50;;;;;2.33;68.29;100282.13;5064686;28;10615;-77
2022/01/17 05:28:50;;;;;;;;;111.00;87.75;;;;;2.28;68.27;100283.59;4997860;28;10474;-76
2022/01/17 05:31:19;;;;;;;;;111.75;93.50;;;;;2.23;68.63;100295.41;5048173;28;10682;-77
2022/01/17 05:33:48;;;;;;;;;114.50;99.75;;;;;2.22;68.87;100296.22;5052007;28;10268;-76
2022/01/17 05:36:16;;;;;;;;;106.75;87.75;;;;;2.28;68.53;100282.72;5031727;28;10745;-78
2022/01/17 05:38:45;;;;;;;;;113.25;89.25;;;;;2.29;68.45;100290.53;5031291;28;10611;-78
2022/01/17 05:41:15;;;;;;;;;116.00;92.50;;;;;2.31;68.39;100290.59;5048012;28;10553;-76
2022/01/17 05:43:44;;;;;;;;;108.00;86.50;;;;;2.23;68.65;100297.06;5031186;28;10467;-77
2022/01/17 05:46:13;;;;;;;;;111.00;92.50;;;;;2.23;69.05;100286.78;5064974;28;10564;-75
2022/01/17 05:48:41;;;;;;;;;116.75;97.50;;;;;2.18;69.01;100294.31;5047734;28;10441;-77
2022/01/17 05:51:10;;;;;;;;;120.50;108.75;;;;;2.23;68.82;100281.63;5012192;28;10726;-76
2022/01/17 05:53:39;;;;;;;;;109.25;91.50;;;;;2.22;69.11;100288.47;5061008;28;11002;-76
2022/01/17 05:56:07;;;;;;;;;109.75;91.50;;;;;2.26;69.06;100285.22;5064881;28;10507;-77
2022/01/17 05:58:37;;;;;;;;;107.50;82.00;;;;;2.26;69.44;100289.50;5083010;28;10624;-76
2022/01/17 06:01:06;;;;;;;;;105.00;77.50;;;;;2.21;69.59;100284.16;5086279;28;10043;-78
2022/01/17 06:03:35;;;;;;;;;105.25;82.00;;;;;2.27;69.61;100296.41;5086224;28;10476;-77
2022/01/17 06:06:05;;;;;;;;;103.00;80.25;;;;;2.26;69.63;100287.81;5085317;28;10148;-78
2022/01/17 06:08:34;;;;;;;;;106.00;84.75;;;;;2.29;69.66;100287.09;5085348;28;10474;-74
2022/01/17 06:11:03;;;;;;;;;103.25;80.25;;;;;2.33;69.36;100301.84;5044732;28;10230;-77
2022/01/17 06:13:31;;;;;;;;;104.25;79.50;;;;;2.38;69.21;100295.19;5015472;28;10157;-77
2022/01/17 06:16:02;;;;;;;;;102.50;79.00;;;;;2.45;68.87;100301.50;4972391;28;10057;-77
2022/01/17 06:18:30;;;;;;;;;104.00;78.50;;;;;2.50;68.73;100310.31;4956542;28;10238;-76
2022/01/17 06:20:59;;;;;;;;;102.00;78.50;;;;;2.56;68.50;100299.41;4956555;28;10013;-76
2022/01/17 06:23:27;;;;;;;;;103.50;79.75;;;;;2.59;68.28;100305.56;4972677;28;9746;-75
2022/01/17 06:25:56;;;;;;;;;103.00;81.00;;;;;2.61;68.20;100297.88;4989027;28;9806;-77
2022/01/17 06:28:24;;;;;;;;;96.25;75.50;;;;;2.63;68.14;100297.16;4956782;28;10166;-77
2022/01/17 06:30:53;;;;;;;;;99.75;77.75;;;;;2.65;68.03;100292.09;4988470;28;10009;-76
2022/01/17 06:33:24;;;;;;;;;105.25;87.00;;;;;2.64;68.42;100278.31;4988113;28;9961;-77
2022/01/17 06:35:52;;;;;;;;;94.25;69.50;;;;;2.66;68.24;100279.25;4972117;28;10048;-77
2022/01/17 06:38:21;;;;;;;;;110.50;88.00;;;;;2.71;68.51;100270.03;4969019;28;9999;-77
2022/01/17 06:40:49;;;;;;;;;104.25;79.50;;;;;2.69;68.28;100258.78;4964594;28;10292;-77
2022/01/17 06:43:18;;;;;;;;;106.75;81.00;;;;;2.66;68.80;100248.34;4986969;28;10568;-77
2022/01/17 06:45:47;;;;;;;;;106.75;81.25;;;;;2.61;69.26;100248.97;4926024;28;10159;-76
2022/01/17 06:48:16;;;;;;;;;100.00;76.00;;;;;2.67;69.18;100244.97;5012020;28;10011;-77
2022/01/17 06:50:46;;;;;;;;;88.00;71.67;;;;;2.76;68.79;100253.91;5033828;28;9664;-77
2022/01/17 06:53:15;;;;;;;;;94.25;74.75;;;;;2.87;68.39;100250.06;5014430;28;9427;-77
2022/01/17 06:55:43;;;;;;;;;99.25;75.00;;;;;2.85;68.52;100243.97;5007139;28;9579;-76
2022/01/17 06:58:12;;;;;;;;;99.50;78.00;;;;;2.92;68.54;100248.59;4993694;28;9844;-78
2022/01/17 07:00:41;;;;;;;;;98.25;76.00;;;;;2.97;68.06;100254.81;5026991;28;9884;-78
2022/01/17 07:03:10;;;;;;;;;77.00;59.50;;;;;3.04;67.91;100250.78;5026591;28;9711;-77
2022/01/17 07:05:38;;;;;;;;;97.33;76.00;;;;;3.08;67.86;100255.22;4993538;28;9777;-78
2022/01/17 07:08:08;;;;;;;;;99.75;75.75;;;;;3.16;67.74;100266.75;5027571;28;9632;-77
2022/01/17 07:10:37;;;;;;;;;95.67;75.33;;;;;3.26;67.49;100276.59;5026739;28;9626;-76
2022/01/17 07:13:06;;;;;;;;;98.75;75.50;;;;;3.38;67.45;100263.31;4994493;28;9423;-77
2022/01/17 07:15:38;;;;;;;;;70.00;58.67;;;;;3.42;67.07;100260.06;5046198;28;9548;-76
2022/01/17 07:18:07;;;;;;;;;96.00;74.00;;;;;3.49;67.40;100256.88;5033421;28;9393;-76
2022/01/17 07:20:35;;;;;;;;;98.33;76.33;;;;;3.57;66.91;100264.06;5033532;28;9424;-78
2022/01/17 07:23:04;;;;;;;;;97.75;76.50;;;;;3.62;65.95;100260.84;5031183;28;13095;-76
2022/01/17 07:25:38;;;;;;;;;98.25;76.50;;;;;3.70;65.96;100253.41;5064386;28;9643;-77
2022/01/17 07:28:08;;;;;;;;;96.25;74.75;;;;;3.76;65.84;100234.69;5089513;28;9586;-76
2022/01/17 07:30:38;;;;;;;;;93.67;72.33;;;;;3.81;65.33;100228.88;5037341;28;9563;-76
2022/01/17 07:33:07;;;;;;;;;96.50;76.00;;;;;3.93;65.26;100227.59;5088382;28;9460;-76
2022/01/17 07:35:37;;;;;;;;;95.00;71.00;;;;;3.97;65.29;100226.88;5052070;28;9548;-77
2022/01/17 07:38:06;;;;;;;;;97.50;78.75;;;;;4.06;65.54;100227.22;5069709;28;9487;-77
2022/01/17 07:40:36;;;;;;;;;99.50;77.25;;;;;4.17;64.89;100236.22;5088209;28;9698;-77
2022/01/17 07:43:06;;;;;;;;;97.75;74.75;;;;;4.22;64.67;100239.00;5104844;28;9696;-76
2022/01/17 07:45:36;;;;;;;;;100.00;78.00;;;;;4.31;64.55;100252.25;5088160;28;9664;-76
2022/01/17 07:48:22;;;;;;;;;97.33;74.67;;;;;4.35;64.04;100267.00;5069655;28;9682;-78
2022/01/17 07:50:51;;;;;;;;;90.67;72.33;;;;;4.44;63.87;100287.09;5089272;28;9495;-76
2022/01/17 07:53:20;;;;;;;;;98.33;73.33;;;;;4.57;63.71;100309.09;5089126;28;9583;-77
2022/01/17 07:55:50;;;;;;;;;80.67;62.67;;;;;4.72;62.90;100324.25;5070685;28;9414;-77
2022/01/17 07:58:18;;;;;;;;;94.33;73.00;;;;;4.55;63.54;100327.09;5071036;28;9600;-76
2022/01/17 08:00:47;;;;;;;;;83.75;67.00;;;;;4.69;62.98;100330.22;5045792;28;9280;-77
2022/01/17 08:03:15;;;;;;;;;85.33;65.67;;;;;4.79;62.86;100326.25;5029967;28;9648;-75
2022/01/17 08:05:44;;;;;;;;;90.33;70.67;;;;;4.84;62.38;100302.31;5046363;28;10244;-75
2022/01/17 08:08:13;;;;;;;;;97.33;71.00;;;;;4.91;62.27;100289.59;5029444;28;9347;-75
2022/01/17 08:10:41;;;;;;;;;89.33;70.33;;;;;5.03;62.87;100287.44;5028870;28;9404;-76
2022/01/17 08:13:12;;;;;;;;;94.25;72.75;;;;;5.11;61.62;100274.78;5013139;28;9224;-74
2022/01/17 08:15:41;;;;;;;;;91.33;71.00;;;;;5.18;61.47;100272.44;5045391;28;9608;-76
2022/01/17 08:18:11;;;;;;;;;93.00;74.25;;;;;5.30;61.87;100245.22;5045798;28;10205;-73
2022/01/17 08:20:40;;;;;;;;;85.00;67.67;;;;;5.33;61.34;100232.38;5028655;28;10925;-74
2022/01/17 08:23:09;;;;;;;;;95.00;73.75;;;;;5.32;60.78;100212.53;5008094;28;9555;-75
2022/01/17 08:25:38;;;;;;;;;95.50;73.25;;;;;5.35;60.96;100184.16;5009217;28;9552;-74
2022/01/17 08:28:07;;;;;;;;;88.33;67.00;;;;;5.46;60.92;100183.69;5009441;28;9653;-73
2022/01/17 08:30:38;;;;;;;;;92.50;74.00;;;;;5.55;60.93;100184.78;4992527;28;9475;-75
2022/01/17 08:33:26;;;;;;;;;92.25;72.50;;;;;5.62;60.12;100208.28;5061937;28;9636;-75
2022/01/17 08:35:55;;;;;;;;;89.67;69.33;;;;;5.49;60.33;100229.47;5045188;28;9487;-77
2022/01/17 08:38:44;;;;;;;;;93.33;73.00;;;;;5.51;60.84;100256.25;5028265;28;9429;-77
2022/01/17 08:41:12;;;;;;;;;91.67;70.33;;;;;5.66;60.53;100297.25;5012625;28;9616;-75
2022/01/17 08:43:41;;;;;;;;;91.00;68.75;;;;;5.74;60.06;100342.34;5028715;28;9482;-76
2022/01/17 08:46:11;;;;;;;;;81.00;61.25;;;;;5.87;60.09;100374.69;5045639;28;10298;-78
2022/01/17 08:48:41;;;;;;;;;90.33;68.67;;;;;5.93;60.14;100381.75;5028869;28;9622;-76
2022/01/17 08:51:10;;;;;;;;;92.00;69.67;;;;;6.00;59.62;100363.03;5028761;28;9640;-77
2022/01/17 08:53:39;;;;;;;;;85.33;66.67;;;;;5.83;58.14;100342.63;5054604;28;9285;-75
2022/01/17 08:56:09;;;;;;;;;67.75;54.50;;;;;5.90;59.29;100341.13;5086078;28;9184;-76
2022/01/17 08:58:37;;;;;;;;;80.25;64.00;;;;;6.11;58.28;100303.81;5065805;28;8908;-76
2022/01/17 09:01:08;;;;;;;;;79.75;62.25;;;;;5.95;58.83;100256.75;5059814;28;8848;-73
2022/01/17 09:03:38;;;;;;;;;77.00;61.00;;;;;6.00;58.36;100275.00;5087793;28;8978;-74
2022/01/17 09:06:07;;;;;;;;;75.50;61.75;;;;;6.09;58.67;100267.53;5086560;28;8852;-75
2022/01/17 09:08:36;;;;;;;;;71.50;55.00;;;;;6.21;58.29;100231.59;5068503;28;8852;-75
2022/01/17 09:11:04;;;;;;;;;72.50;58.75;;;;;6.34;57.07;100248.38;5068493;28;8858;-75
2022/01/17 09:13:33;;;;;;;;;78.25;60.50;;;;;6.60;57.63;100225.75;5087158;28;9644;-75
2022/01/17 09:16:02;;;;;;;;;76.00;60.50;;;;;6.73;57.43;100214.00;5086401;28;8871;-75
2022/01/17 09:18:31;;;;;;;;;69.25;55.50;;;;;6.55;55.76;100234.25;5087716;28;9124;-74
2022/01/17 09:21:02;;;;;;;;;72.00;57.50;;;;;6.76;55.52;100220.97;5082409;28;8855;-77
2022/01/17 09:23:31;;;;;;;;;58.00;47.00;;;;;6.79;55.49;100193.44;5064579;28;8885;-75
2022/01/17 09:25:59;;;;;;;;;50.75;42.00;;;;;6.56;54.89;100202.31;5086179;28;8855;-75
2022/01/17 09:28:28;;;;;;;;;66.75;52.50;;;;;6.75;55.61;100208.88;5069538;28;9084;-75
2022/01/17 09:30:57;;;;;;;;;60.50;48.00;;;;;6.90;55.32;100209.25;5086450;28;8843;-76
2022/01/17 09:33:26;;;;;;;;;51.00;42.00;;;;;6.81;54.03;100196.94;5086701;28;8917;-75
2022/01/17 09:35:55;;;;;;;;;64.25;53.50;;;;;6.80;55.15;100177.00;5086797;28;8860;-75
2022/01/17 09:38:25;;;;;;;;;63.75;52.00;;;;;6.90;54.73;100182.44;5086794;28;8868;-75
2022/01/17 09:40:54;;;;;;;;;59.00;46.75;;;;;7.07;53.98;100167.28;5069607;28;8984;-75
2022/01/17 09:43:43;;;;;;;;;68.50;50.00;;;;;7.05;54.25;100177.63;5066323;28;8870;-76
2022/01/17 09:46:11;;;;;;;;;62.75;50.50;;;;;6.77;52.89;100189.91;5075654;28;8865;-77
2022/01/17 09:48:46;;;;;;;;;55.50;45.50;;;;;6.79;52.92;100193.44;5026758;28;8842;-74
2022/01/17 09:51:31;;;;;;;;;55.25;46.50;;;;;6.99;54.59;100193.03;5027833;28;8846;-75
2022/01/17 09:54:01;;;;;;;;;54.00;45.75;;;;;6.99;53.54;100199.13;5011606;28;8872;-74
2022/01/17 09:56:31;;;;;;;;;55.25;46.00;;;;;7.15;52.96;100183.91;5038909;28;9032;-77
2022/01/17 09:59:02;;;;;;;;;55.75;46.25;;;;;7.31;53.20;100178.22;5023813;28;8884;-76
2022/01/17 10:01:32;;;;;;;;;43.50;41.25;;;;;7.39;52.48;100171.50;4999137;28;8996;-76
2022/01/17 10:04:06;;;;;;;;;45.25;39.00;;;;;7.57;53.04;100165.84;5003415;28;8886;-77
2022/01/17 10:06:36;;;;;;;;;44.00;40.75;;;;;7.58;52.04;100156.31;4942182;28;8866;-76
2022/01/17 10:09:17;;;;;;;;;41.00;35.25;;;;;7.79;50.52;100128.22;4983996;28;8839;-77
2022/01/17 10:12:08;;;;;;;;;39.25;36.00;;;;;7.67;49.75;100132.28;4987990;28;8989;-74
2022/01/17 10:14:39;;;;;;;;;42.50;36.25;;;;;7.76;51.27;100130.75;5003448;28;8845;-76
2022/01/17 10:17:10;;;;;;;;;38.00;36.25;;;;;7.85;49.54;100126.59;5003441;28;8886;-75
2022/01/17 10:19:40;;;;;;;;;34.25;33.50;;;;;7.73;49.95;100132.41;4984321;28;8853;-74
2022/01/17 10:22:15;;;;;;;;;34.00;33.00;;;;;7.91;50.98;100139.69;4975072;28;8910;-74
2022/01/17 10:24:57;;;;;;;;;28.50;27.50;;;;;8.01;49.56;100126.03;4986422;28;8851;-77
2022/01/17 10:30:47;;;;;;;;;40.50;38.75;;;;;8.01;48.32;100110.47;4963632;28;9004;-74
2022/01/17 10:36:02;;;;;;;;;45.50;38.75;;;;;7.67;48.62;100116.72;4984179;28;8922;-73
2022/01/17 10:38:30;;;;;;;;;40.50;33.00;;;;;7.60;50.08;100116.59;4975441;28;8986;-73
2022/01/17 10:41:04;;;;;;;;;38.50;34.75;;;;;7.78;50.29;100118.66;5007411;28;8886;-74
2022/01/17 10:43:35;;;;;;;;;27.25;25.50;;;;;7.90;48.79;100117.16;5003003;28;8866;-76
2022/01/17 10:46:06;;;;;;;;;28.75;25.25;;;;;8.02;48.20;100109.63;5006520;28;9006;-77
2022/01/17 10:48:37;;;;;;;;;33.00;32.50;;;;;7.91;48.98;100095.56;4989397;28;8879;-76
2022/01/17 10:51:08;;;;;;;;;32.50;30.25;;;;;8.02;49.30;100082.78;5023653;28;8841;-75
2022/01/17 10:53:39;;;;;;;;;35.50;33.00;;;;;8.24;49.05;100078.84;5009817;28;8906;-66
2022/01/17 10:56:11;;;;;;;;;33.25;31.75;;;;;8.49;48.88;100075.84;5023470;28;8875;-67
2022/01/17 10:58:40;;;;;;;;;34.00;32.75;;;;;8.54;48.44;100071.59;5027394;28;8887;-68
2022/01/17 11:01:11;;;;;;;;;29.75;28.25;;;;;8.64;47.41;100071.72;5027192;28;8860;-68
2022/01/17 11:03:42;;;;;;;;;42.25;34.50;;;;;8.91;46.69;100056.56;5010904;28;8952;-69
2022/01/17 11:06:13;;;;;;;;;33.80;30.20;;;;;9.04;46.78;100041.13;5047078;28;9718;-68
2022/01/17 11:08:42;;;;;;;;;27.40;25.00;;;;;9.26;47.32;100024.03;5049523;28;8902;-68
2022/01/17 11:11:12;;;;;;;;;30.40;28.40;;;;;9.25;46.12;100017.13;5047619;28;8857;-68
2022/01/17 11:13:45;;;;;;;;;36.00;30.75;;;;;9.32;45.89;100008.53;5050142;28;8873;-68
2022/01/17 11:16:14;;;;;;;;;25.80;21.40;;;;;9.44;46.34;100008.66;5037093;28;8856;-73
2022/01/17 11:18:46;;;;;;;;;39.50;32.00;;;;;9.56;45.77;100005.31;5049245;28;9595;-69
2022/01/17 11:21:17;;;;;;;;;40.00;31.00;;;;;9.66;45.71;100003.69;5049888;28;8853;-76
2022/01/17 11:23:49;;;;;;;;;41.40;36.60;;;;;9.79;44.44;99999.47;5047996;28;8861;-77
2022/01/17 11:26:19;;;;;;;;;36.50;32.00;;;;;9.77;45.71;99994.25;5051100;28;8881;-75
2022/01/17 11:28:54;;;;;;;;;35.20;30.20;;;;;9.79;45.81;99994.25;5050007;28;8853;-77
2022/01/17 11:31:24;;;;;;;;;43.00;37.75;;;;;9.84;44.01;99992.59;5049558;28;8869;-77
2022/01/17 11:33:54;;;;;;;;;35.75;32.75;;;;;9.60;45.81;99982.78;5067248;28;9126;-76
2022/01/17 11:36:22;;;;;;;;;41.25;34.50;;;;;9.51;46.25;99983.59;5052534;28;8837;-75
2022/01/17 11:38:55;;;;;;;;;32.75;31.75;;;;;9.42;45.57;99973.06;5050455;28;8948;-75
2022/01/17 11:41:28;;;;;;;;;39.75;36.25;;;;;9.27;46.63;99963.34;5050202;28;9018;-78
2022/01/17 11:43:59;;;;;;;;;34.25;32.75;;;;;9.39;45.88;99944.38;5048017;28;8849;-76
2022/01/17 11:46:30;;;;;;;;;41.25;37.25;;;;;9.47;46.31;99927.13;5032204;28;8868;-77